METAR - Ísland

Uppfært síðast 24.01.2019 - kl. 13:27

SIGMET síðustu 6 klst.

BIRD SIGMET B01 VALID 241210/241500 BIRK- BIRD REYKJAVIK CTA SEV TURB OBS AT 1212Z WI N6100 E00000 - N6100 W01000 - N6400 W01000 - N6200 E00000 - N6100 E00000 FL280/390 STNR NC

METAR síðustu 3 klst

Flugv.TímiSkeyti
BIAR2019-01-24 13.00METAR BIAR 241300Z 18004KT 5000 -SN SCT015 BKN039 OVC046 M03/M03 Q1000 R01/490095
BIAR2019-01-24 11.00METAR BIAR 241100Z 17006KT 3000 -SN BKN015 OVC020 M03/M03 Q1001 R01/490095
BIBD2019-01-24 13.00METAR BIBD 241300Z 20004KT 9999 FEW020 SCT030 M02/M05 Q0997 RMK HALKUBLETTIR
BIBD2019-01-24 12.00METAR BIBD 241200Z 19002KT 9999 FEW025 SCT030 M02/M04 Q0997 R22/CLRD// RMK HALKUBLETTIR
BIBD2019-01-24 11.00METAR BIBD 241100Z 00000KT 9999 FEW015 SCT025 M02/M03 Q0998 R22/CLRD// RMK HALKUBLETTIR
BIEG2019-01-24 13.00METAR BIEG 241300Z 00000KT 9999 VCSH FEW003 BKN012 OVC016 M02/M02 Q1000 R04/490294
BIEG2019-01-24 12.00METAR BIEG 241200Z 00000KT 8000 -FZRA BR FEW010 BKN023 OVC040 M02/M02 Q1000 R04/490236
BIEG2019-01-24 11.00METAR BIEG 241100Z 00000KT 3000 -SN BR FEW008 BKN022 OVC036 M02/M02 Q1001 R04/910195
BIGR2019-01-24 12.00METAR BIGR 241200Z 13012KT 5000 SNRA OVC006 01/M00 Q1000
BIHN2019-01-24 13.00METAR BIHN 241300Z 34007KT 9999 VCSH FEW015 SCT040 OVC050 01/M02 Q0999 R18/890128
BIHN2019-01-24 12.00METAR BIHN 241200Z 34008KT 9999 FEW020 BKN050 01/M02 Q1000 R18/890128
BIHN2019-01-24 11.00METAR BIHN 241100Z 34010KT 9999 FEW015 BKN040 00/M02 Q1000 R18/890130
BIHU2019-01-24 12.00METAR BIHU 241200Z 19007KT 9000 4000S -SN SCT010 OVC030 M03/M04 Q1000
BIIS2019-01-24 13.00METAR BIIS 241300Z 21004KT 9999 SCT006 SCT012 BKN018 M03/M04 Q0997
BIIS2019-01-24 11.49METAR BIIS 241149Z 19005KT 9999 BKN006 OVC008 M02/M03 Q0998
BIIS2019-01-24 11.00METAR BIIS 241100Z 00000KT 9999 VCSH FEW006 BKN008 OVC022 M02/M03 Q0998
BIKF2019-01-24 13.00METAR BIKF 241300Z 08016KT 9999 FEW011 OVC015 02/M00 Q0993 R10/290074
BIKF2019-01-24 12.30METAR BIKF 241230Z 08015KT 9999 -SN FEW013 BKN016 OVC021 01/00 Q0993 R10/450054
BIKF2019-01-24 12.00METAR BIKF 241200Z 07013KT 9000 -SN BKN014 OVC017 00/M01 Q0994 R10/450054
BIKF2019-01-24 11.30METAR BIKF 241130Z 07014KT 9999 SCT014 BKN019 OVC022 M00/M01 Q0995 R10/450054
BIKF2019-01-24 11.00METAR BIKF 241100Z 07016KT 5000 -SN -DRSN BKN008 BKN017 OVC022 M00/M01 Q0995 R10/450054
BIKF2019-01-24 10.30METAR BIKF 241030Z 07015KT 7000 -SN -DRSN BKN006 BKN015 OVC023 M01/M02 Q0996 R10/450054
BIRK2019-01-24 13.00METAR BIRK 241300Z 08017KT 9999 VCSH FEW015 SCT037 BKN052 00/M03 Q0993 R13/790134
BIRK2019-01-24 12.00METAR BIRK 241200Z 08012KT 9999 -SN FEW029 BKN046 BKN065 M01/M04 Q0995 R13/790134
BIRK2019-01-24 11.00METAR BIRK 241100Z 07011KT 9999 FEW027 BKN046 BKN072 M01/M04 Q0996 R13/790134
BITN2019-01-24 12.00METAR BITN 241200Z 11016KT 9999 4999S VCSH BKN012 02/00 Q1000 R01/593051
BITN2019-01-24 11.00METAR BITN 241100Z 12014KT 9999 4999S BKN012 02/01 Q1001 R01/593042
BIVM2019-01-24 13.00METAR BIVM 241300Z 10026KT 9999 VCSH BKN030 02/01 Q0994
BIVM2019-01-24 12.00METAR BIVM 241200Z 11026KT 9999 VCSH FEW012 BKN030 02/01 Q0994
BIVM2019-01-24 11.00METAR BIVM 241100Z 11026KT 9999 -RA VCSH BKN010 OVC015 02/01 Q0995 R12/510143 RMK BRAUTIN SOPUD OG BREMSA A 43 B 42 C 44
BIVO2019-01-24 12.00METAR BIVO 241200Z 00000KT 9999 4999S -SHSN SCT005 OVC020 M01/M01 Q1001 R05/490337
BIVO2019-01-24 11.00METAR BIVO 241100Z 00000KT 7000 -SN SCT005 OVC010 M01/M02 Q1002 R05/490337

Textaspár eru skrifaðar af vakthafandi veðurfræðingi á Veðurstofu Íslands.




Aðrir tengdir vefir



Þetta vefsvæði byggir á Eplica